sensor_id;sensor_type;location;lat;lon;timestamp;P1;durP1;ratioP1;P2;durP2;ratioP2
62848;SDS011;48941;49.516;8.286;2022-11-11T00:01:08;10.70;;;6.32;;
62848;SDS011;48941;49.516;8.286;2022-11-11T00:03:38;9.55;;;5.18;;
62848;SDS011;48941;49.516;8.286;2022-11-11T00:06:08;10.95;;;4.93;;
62848;SDS011;48941;49.516;8.286;2022-11-11T00:08:38;13.68;;;5.70;;
62848;SDS011;48941;49.516;8.286;2022-11-11T00:11:07;9.93;;;4.85;;
62848;SDS011;48941;49.516;8.286;2022-11-11T00:13:36;9.20;;;4.18;;
62848;SDS011;48941;49.516;8.286;2022-11-11T00:16:06;9.43;;;4.13;;
62848;SDS011;48941;49.516;8.286;2022-11-11T00:18:35;10.27;;;3.70;;
62848;SDS011;48941;49.516;8.286;2022-11-11T00:21:21;7.03;;;3.60;;
62848;SDS011;48941;49.516;8.286;2022-11-11T00:24:17;5.28;;;3.40;;
62848;SDS011;48941;49.516;8.286;2022-11-11T00:27:05;6.47;;;3.10;;
62848;SDS011;48941;49.516;8.286;2022-11-11T00:29:34;5.60;;;3.40;;
62848;SDS011;48941;49.516;8.286;2022-11-11T00:32:02;5.78;;;3.28;;
62848;SDS011;48941;49.516;8.286;2022-11-11T00:34:48;5.75;;;2.92;;
62848;SDS011;48941;49.516;8.286;2022-11-11T00:37:34;5.75;;;2.88;;
62848;SDS011;48941;49.516;8.286;2022-11-11T00:40:04;4.68;;;3.10;;
62848;SDS011;48941;49.516;8.286;2022-11-11T00:42:33;4.78;;;2.85;;
62848;SDS011;48941;49.516;8.286;2022-11-11T00:45:00;5.22;;;3.00;;
62848;SDS011;48941;49.516;8.286;2022-11-11T00:47:29;7.38;;;2.60;;
62848;SDS011;48941;49.516;8.286;2022-11-11T00:50:15;4.65;;;2.88;;
62848;SDS011;48941;49.516;8.286;2022-11-11T00:53:02;4.90;;;3.20;;
62848;SDS011;48941;49.516;8.286;2022-11-11T00:55:31;6.47;;;3.35;;
62848;SDS011;48941;49.516;8.286;2022-11-11T00:57:59;5.45;;;3.42;;
62848;SDS011;48941;49.516;8.286;2022-11-11T01:00:27;7.45;;;3.72;;
62848;SDS011;48941;49.516;8.286;2022-11-11T01:02:55;6.53;;;3.63;;
62848;SDS011;48941;49.516;8.286;2022-11-11T01:05:23;8.55;;;4.32;;
62848;SDS011;48941;49.516;8.286;2022-11-11T01:07:51;8.60;;;3.50;;
62848;SDS011;48941;49.516;8.286;2022-11-11T01:10:20;7.40;;;4.22;;
62848;SDS011;48941;49.516;8.286;2022-11-11T01:13:04;5.93;;;3.42;;
62848;SDS011;48941;49.516;8.286;2022-11-11T01:15:40;9.80;;;4.18;;
62848;SDS011;48941;49.516;8.286;2022-11-11T01:18:11;7.55;;;3.90;;
62848;SDS011;48941;49.516;8.286;2022-11-11T01:20:41;8.20;;;4.10;;
62848;SDS011;48941;49.516;8.286;2022-11-11T01:23:09;17.08;;;6.78;;
62848;SDS011;48941;49.516;8.286;2022-11-11T01:25:39;12.13;;;6.40;;
62848;SDS011;48941;49.516;8.286;2022-11-11T01:28:09;11.18;;;5.40;;
62848;SDS011;48941;49.516;8.286;2022-11-11T01:30:37;9.27;;;5.30;;
62848;SDS011;48941;49.516;8.286;2022-11-11T01:33:05;7.50;;;4.80;;
62848;SDS011;48941;49.516;8.286;2022-11-11T01:35:36;6.90;;;4.13;;
62848;SDS011;48941;49.516;8.286;2022-11-11T01:38:05;8.10;;;4.28;;
62848;SDS011;48941;49.516;8.286;2022-11-11T01:40:40;10.35;;;4.70;;
62848;SDS011;48941;49.516;8.286;2022-11-11T01:43:20;8.85;;;4.82;;
62848;SDS011;48941;49.516;8.286;2022-11-11T01:45:52;7.32;;;4.15;;
62848;SDS011;48941;49.516;8.286;2022-11-11T01:48:25;9.55;;;4.25;;
62848;SDS011;48941;49.516;8.286;2022-11-11T01:51:17;6.97;;;4.40;;
62848;SDS011;48941;49.516;8.286;2022-11-11T01:53:53;6.70;;;4.53;;
62848;SDS011;48941;49.516;8.286;2022-11-11T01:56:23;10.20;;;4.97;;
62848;SDS011;48941;49.516;8.286;2022-11-11T01:58:53;10.00;;;5.53;;
62848;SDS011;48941;49.516;8.286;2022-11-11T02:01:24;14.27;;;6.72;;
62848;SDS011;48941;49.516;8.286;2022-11-11T02:03:52;11.05;;;5.88;;
62848;SDS011;48941;49.516;8.286;2022-11-11T02:06:40;9.02;;;4.90;;
62848;SDS011;48941;49.516;8.286;2022-11-11T02:09:08;10.77;;;4.82;;
62848;SDS011;48941;49.516;8.286;2022-11-11T02:11:37;7.85;;;4.18;;
62848;SDS011;48941;49.516;8.286;2022-11-11T02:14:27;9.13;;;4.10;;
62848;SDS011;48941;49.516;8.286;2022-11-11T02:17:07;7.15;;;4.22;;
62848;SDS011;48941;49.516;8.286;2022-11-11T02:19:41;5.57;;;3.92;;
62848;SDS011;48941;49.516;8.286;2022-11-11T02:22:17;7.70;;;3.58;;
62848;SDS011;48941;49.516;8.286;2022-11-11T02:24:51;4.82;;;3.40;;
62848;SDS011;48941;49.516;8.286;2022-11-11T02:27:20;7.45;;;3.15;;
62848;SDS011;48941;49.516;8.286;2022-11-11T02:29:51;8.02;;;3.45;;
62848;SDS011;48941;49.516;8.286;2022-11-11T02:32:22;4.45;;;3.30;;
62848;SDS011;48941;49.516;8.286;2022-11-11T02:34:51;5.75;;;3.63;;
62848;SDS011;48941;49.516;8.286;2022-11-11T02:37:19;6.10;;;3.60;;
62848;SDS011;48941;49.516;8.286;2022-11-11T02:39:49;8.02;;;3.95;;
62848;SDS011;48941;49.516;8.286;2022-11-11T02:42:31;7.88;;;3.70;;
62848;SDS011;48941;49.516;8.286;2022-11-11T02:45:00;4.82;;;3.92;;
62848;SDS011;48941;49.516;8.286;2022-11-11T02:47:28;7.68;;;3.88;;
62848;SDS011;48941;49.516;8.286;2022-11-11T02:49:56;6.90;;;4.00;;
62848;SDS011;48941;49.516;8.286;2022-11-11T02:52:24;7.70;;;4.50;;
62848;SDS011;48941;49.516;8.286;2022-11-11T02:54:53;7.78;;;5.10;;
62848;SDS011;48941;49.516;8.286;2022-11-11T02:57:21;12.15;;;5.70;;
62848;SDS011;48941;49.516;8.286;2022-11-11T02:59:49;10.13;;;5.70;;
62848;SDS011;48941;49.516;8.286;2022-11-11T03:02:17;8.82;;;5.80;;
62848;SDS011;48941;49.516;8.286;2022-11-11T03:04:45;7.90;;;6.13;;
62848;SDS011;48941;49.516;8.286;2022-11-11T03:07:13;7.78;;;6.15;;
62848;SDS011;48941;49.516;8.286;2022-11-11T03:09:41;9.20;;;6.35;;
62848;SDS011;48941;49.516;8.286;2022-11-11T03:12:10;9.52;;;6.55;;
62848;SDS011;48941;49.516;8.286;2022-11-11T03:14:38;9.43;;;6.05;;
62848;SDS011;48941;49.516;8.286;2022-11-11T03:17:06;9.68;;;6.15;;
62848;SDS011;48941;49.516;8.286;2022-11-11T03:19:51;8.10;;;5.80;;
62848;SDS011;48941;49.516;8.286;2022-11-11T03:22:39;13.27;;;6.25;;
62848;SDS011;48941;49.516;8.286;2022-11-11T03:25:20;9.57;;;5.97;;
62848;SDS011;48941;49.516;8.286;2022-11-11T03:28:08;8.57;;;5.20;;
62848;SDS011;48941;49.516;8.286;2022-11-11T03:30:36;8.25;;;5.50;;
62848;SDS011;48941;49.516;8.286;2022-11-11T03:33:05;7.97;;;5.40;;
62848;SDS011;48941;49.516;8.286;2022-11-11T03:35:33;9.30;;;5.05;;
62848;SDS011;48941;49.516;8.286;2022-11-11T03:38:02;8.38;;;4.95;;
62848;SDS011;48941;49.516;8.286;2022-11-11T03:40:50;8.13;;;5.10;;
62848;SDS011;48941;49.516;8.286;2022-11-11T03:43:21;8.32;;;5.03;;
62848;SDS011;48941;49.516;8.286;2022-11-11T03:45:51;8.05;;;4.72;;
62848;SDS011;48941;49.516;8.286;2022-11-11T03:48:19;10.10;;;5.07;;
62848;SDS011;48941;49.516;8.286;2022-11-11T03:50:48;11.63;;;5.07;;
62848;SDS011;48941;49.516;8.286;2022-11-11T03:53:16;9.40;;;4.97;;
62848;SDS011;48941;49.516;8.286;2022-11-11T03:55:46;8.32;;;4.95;;
62848;SDS011;48941;49.516;8.286;2022-11-11T03:58:15;9.02;;;4.88;;
62848;SDS011;48941;49.516;8.286;2022-11-11T04:00:44;9.55;;;4.85;;
62848;SDS011;48941;49.516;8.286;2022-11-11T04:03:13;7.35;;;5.03;;
62848;SDS011;48941;49.516;8.286;2022-11-11T04:05:59;11.38;;;5.47;;
62848;SDS011;48941;49.516;8.286;2022-11-11T04:08:41;9.88;;;5.25;;
62848;SDS011;48941;49.516;8.286;2022-11-11T04:11:28;9.50;;;5.07;;
62848;SDS011;48941;49.516;8.286;2022-11-11T04:13:58;9.43;;;4.53;;
62848;SDS011;48941;49.516;8.286;2022-11-11T04:16:48;7.78;;;5.00;;
62848;SDS011;48941;49.516;8.286;2022-11-11T04:19:16;6.80;;;4.22;;
62848;SDS011;48941;49.516;8.286;2022-11-11T04:21:57;9.90;;;4.70;;
62848;SDS011;48941;49.516;8.286;2022-11-11T04:24:25;9.55;;;5.15;;
62848;SDS011;48941;49.516;8.286;2022-11-11T04:27:11;11.23;;;4.72;;
62848;SDS011;48941;49.516;8.286;2022-11-11T04:29:40;8.43;;;4.57;;
62848;SDS011;48941;49.516;8.286;2022-11-11T04:32:08;7.35;;;4.65;;
62848;SDS011;48941;49.516;8.286;2022-11-11T04:34:55;11.15;;;4.97;;
62848;SDS011;48941;49.516;8.286;2022-11-11T04:37:25;7.53;;;4.65;;
62848;SDS011;48941;49.516;8.286;2022-11-11T04:39:54;10.65;;;5.57;;
62848;SDS011;48941;49.516;8.286;2022-11-11T04:42:39;9.82;;;5.43;;
62848;SDS011;48941;49.516;8.286;2022-11-11T04:45:08;14.13;;;5.40;;
62848;SDS011;48941;49.516;8.286;2022-11-11T04:47:58;9.73;;;5.68;;
62848;SDS011;48941;49.516;8.286;2022-11-11T04:50:28;10.65;;;6.28;;
62848;SDS011;48941;49.516;8.286;2022-11-11T04:52:58;12.25;;;5.53;;
62848;SDS011;48941;49.516;8.286;2022-11-11T04:55:25;12.23;;;6.50;;
62848;SDS011;48941;49.516;8.286;2022-11-11T04:58:11;11.77;;;6.05;;
62848;SDS011;48941;49.516;8.286;2022-11-11T05:00:39;10.00;;;6.25;;
62848;SDS011;48941;49.516;8.286;2022-11-11T05:03:09;12.90;;;6.90;;
62848;SDS011;48941;49.516;8.286;2022-11-11T05:05:44;9.73;;;5.90;;
62848;SDS011;48941;49.516;8.286;2022-11-11T05:08:31;10.13;;;6.30;;
62848;SDS011;48941;49.516;8.286;2022-11-11T05:11:18;12.43;;;7.35;;
62848;SDS011;48941;49.516;8.286;2022-11-11T05:13:46;11.55;;;7.47;;
62848;SDS011;48941;49.516;8.286;2022-11-11T05:16:32;13.60;;;7.72;;
62848;SDS011;48941;49.516;8.286;2022-11-11T05:19:22;12.63;;;8.05;;
62848;SDS011;48941;49.516;8.286;2022-11-11T05:22:08;11.38;;;7.88;;
62848;SDS011;48941;49.516;8.286;2022-11-11T05:24:39;10.70;;;7.10;;
62848;SDS011;48941;49.516;8.286;2022-11-11T05:27:27;10.55;;;6.20;;
62848;SDS011;48941;49.516;8.286;2022-11-11T05:29:55;10.73;;;5.95;;
62848;SDS011;48941;49.516;8.286;2022-11-11T05:32:23;9.18;;;5.50;;
62848;SDS011;48941;49.516;8.286;2022-11-11T05:34:52;12.18;;;5.60;;
62848;SDS011;48941;49.516;8.286;2022-11-11T05:37:20;12.52;;;6.55;;
62848;SDS011;48941;49.516;8.286;2022-11-11T05:39:48;14.23;;;9.20;;
62848;SDS011;48941;49.516;8.286;2022-11-11T05:42:16;15.20;;;6.60;;
62848;SDS011;48941;49.516;8.286;2022-11-11T05:44:43;8.75;;;5.82;;
62848;SDS011;48941;49.516;8.286;2022-11-11T05:47:12;12.18;;;6.93;;
62848;SDS011;48941;49.516;8.286;2022-11-11T05:49:39;16.05;;;8.55;;
62848;SDS011;48941;49.516;8.286;2022-11-11T05:52:09;22.35;;;8.65;;
62848;SDS011;48941;49.516;8.286;2022-11-11T05:54:38;18.70;;;7.93;;
62848;SDS011;48941;49.516;8.286;2022-11-11T05:57:06;20.25;;;7.15;;
62848;SDS011;48941;49.516;8.286;2022-11-11T05:59:34;18.08;;;7.55;;
62848;SDS011;48941;49.516;8.286;2022-11-11T06:02:01;21.67;;;8.32;;
62848;SDS011;48941;49.516;8.286;2022-11-11T06:04:30;22.05;;;7.78;;
62848;SDS011;48941;49.516;8.286;2022-11-11T06:06:59;22.58;;;7.53;;
62848;SDS011;48941;49.516;8.286;2022-11-11T06:09:29;24.98;;;7.80;;
62848;SDS011;48941;49.516;8.286;2022-11-11T06:11:56;29.52;;;10.15;;
62848;SDS011;48941;49.516;8.286;2022-11-11T06:14:24;54.65;;;9.45;;
62848;SDS011;48941;49.516;8.286;2022-11-11T06:16:52;28.00;;;9.05;;
62848;SDS011;48941;49.516;8.286;2022-11-11T06:19:20;31.58;;;10.68;;
62848;SDS011;48941;49.516;8.286;2022-11-11T06:21:47;37.53;;;9.75;;
62848;SDS011;48941;49.516;8.286;2022-11-11T06:24:24;30.50;;;9.98;;
62848;SDS011;48941;49.516;8.286;2022-11-11T06:26:54;42.88;;;16.77;;
62848;SDS011;48941;49.516;8.286;2022-11-11T06:29:22;49.53;;;14.40;;
62848;SDS011;48941;49.516;8.286;2022-11-11T06:31:49;57.95;;;21.77;;
62848;SDS011;48941;49.516;8.286;2022-11-11T06:34:17;31.30;;;11.05;;
62848;SDS011;48941;49.516;8.286;2022-11-11T06:36:45;36.97;;;11.32;;
62848;SDS011;48941;49.516;8.286;2022-11-11T06:39:13;31.85;;;7.75;;
62848;SDS011;48941;49.516;8.286;2022-11-11T06:41:40;27.83;;;7.38;;
62848;SDS011;48941;49.516;8.286;2022-11-11T06:44:09;28.17;;;5.95;;
62848;SDS011;48941;49.516;8.286;2022-11-11T06:46:37;31.13;;;6.18;;
62848;SDS011;48941;49.516;8.286;2022-11-11T06:49:05;25.92;;;6.30;;
62848;SDS011;48941;49.516;8.286;2022-11-11T06:51:33;27.98;;;6.32;;
62848;SDS011;48941;49.516;8.286;2022-11-11T06:54:01;15.85;;;5.20;;
62848;SDS011;48941;49.516;8.286;2022-11-11T06:56:29;21.23;;;5.25;;
62848;SDS011;48941;49.516;8.286;2022-11-11T06:58:56;18.85;;;5.28;;
62848;SDS011;48941;49.516;8.286;2022-11-11T07:01:26;20.27;;;5.82;;
62848;SDS011;48941;49.516;8.286;2022-11-11T07:03:53;16.35;;;6.72;;
62848;SDS011;48941;49.516;8.286;2022-11-11T07:06:21;50.20;;;8.10;;
62848;SDS011;48941;49.516;8.286;2022-11-11T07:08:49;21.33;;;8.52;;
62848;SDS011;48941;49.516;8.286;2022-11-11T07:11:17;25.88;;;7.60;;
62848;SDS011;48941;49.516;8.286;2022-11-11T07:13:44;41.38;;;8.10;;
62848;SDS011;48941;49.516;8.286;2022-11-11T07:16:12;35.72;;;8.77;;
62848;SDS011;48941;49.516;8.286;2022-11-11T07:18:41;21.33;;;9.27;;
62848;SDS011;48941;49.516;8.286;2022-11-11T07:21:09;26.50;;;10.68;;
62848;SDS011;48941;49.516;8.286;2022-11-11T07:23:37;16.45;;;9.77;;
62848;SDS011;48941;49.516;8.286;2022-11-11T07:26:04;25.95;;;9.52;;
62848;SDS011;48941;49.516;8.286;2022-11-11T07:28:32;19.95;;;8.93;;
62848;SDS011;48941;49.516;8.286;2022-11-11T07:31:00;21.48;;;9.32;;
62848;SDS011;48941;49.516;8.286;2022-11-11T07:33:28;28.85;;;9.02;;
62848;SDS011;48941;49.516;8.286;2022-11-11T07:35:57;32.72;;;10.05;;
62848;SDS011;48941;49.516;8.286;2022-11-11T07:38:24;25.52;;;9.35;;
62848;SDS011;48941;49.516;8.286;2022-11-11T07:40:53;20.33;;;9.30;;
62848;SDS011;48941;49.516;8.286;2022-11-11T07:43:21;24.13;;;9.52;;
62848;SDS011;48941;49.516;8.286;2022-11-11T07:45:50;19.85;;;9.05;;
62848;SDS011;48941;49.516;8.286;2022-11-11T07:48:18;14.93;;;8.88;;
62848;SDS011;48941;49.516;8.286;2022-11-11T07:50:47;16.13;;;8.38;;
62848;SDS011;48941;49.516;8.286;2022-11-11T07:53:19;17.45;;;8.77;;
62848;SDS011;48941;49.516;8.286;2022-11-11T07:55:47;15.85;;;8.95;;
62848;SDS011;48941;49.516;8.286;2022-11-11T07:58:15;19.30;;;8.60;;
62848;SDS011;48941;49.516;8.286;2022-11-11T08:00:42;18.05;;;9.13;;
62848;SDS011;48941;49.516;8.286;2022-11-11T08:03:10;15.88;;;8.50;;
62848;SDS011;48941;49.516;8.286;2022-11-11T08:05:38;36.90;;;8.93;;
62848;SDS011;48941;49.516;8.286;2022-11-11T08:08:06;15.82;;;8.55;;
62848;SDS011;48941;49.516;8.286;2022-11-11T08:10:36;20.63;;;9.00;;
62848;SDS011;48941;49.516;8.286;2022-11-11T08:13:04;43.35;;;8.45;;
62848;SDS011;48941;49.516;8.286;2022-11-11T08:15:58;21.83;;;8.10;;
62848;SDS011;48941;49.516;8.286;2022-11-11T08:18:28;26.20;;;7.40;;
62848;SDS011;48941;49.516;8.286;2022-11-11T08:20:56;13.88;;;7.72;;
62848;SDS011;48941;49.516;8.286;2022-11-11T08:23:24;20.73;;;7.18;;
62848;SDS011;48941;49.516;8.286;2022-11-11T08:26:19;17.45;;;6.88;;
62848;SDS011;48941;49.516;8.286;2022-11-11T08:28:54;13.85;;;7.55;;
62848;SDS011;48941;49.516;8.286;2022-11-11T08:31:22;19.88;;;6.65;;
62848;SDS011;48941;49.516;8.286;2022-11-11T08:33:50;19.83;;;7.53;;
62848;SDS011;48941;49.516;8.286;2022-11-11T08:36:19;29.05;;;8.00;;
62848;SDS011;48941;49.516;8.286;2022-11-11T08:38:49;28.35;;;8.13;;
62848;SDS011;48941;49.516;8.286;2022-11-11T08:41:16;23.75;;;7.85;;
62848;SDS011;48941;49.516;8.286;2022-11-11T08:43:45;21.13;;;10.77;;
62848;SDS011;48941;49.516;8.286;2022-11-11T08:46:13;28.88;;;10.90;;
62848;SDS011;48941;49.516;8.286;2022-11-11T08:48:41;42.47;;;9.50;;
62848;SDS011;48941;49.516;8.286;2022-11-11T08:51:09;20.95;;;11.10;;
62848;SDS011;48941;49.516;8.286;2022-11-11T08:53:36;28.95;;;8.73;;
62848;SDS011;48941;49.516;8.286;2022-11-11T08:56:05;23.02;;;9.40;;
62848;SDS011;48941;49.516;8.286;2022-11-11T08:58:33;15.98;;;8.50;;
62848;SDS011;48941;49.516;8.286;2022-11-11T09:01:03;18.63;;;8.05;;
62848;SDS011;48941;49.516;8.286;2022-11-11T09:03:32;21.92;;;7.90;;
62848;SDS011;48941;49.516;8.286;2022-11-11T09:06:00;19.30;;;8.45;;
62848;SDS011;48941;49.516;8.286;2022-11-11T09:08:27;16.95;;;8.88;;
62848;SDS011;48941;49.516;8.286;2022-11-11T09:10:56;23.50;;;8.23;;
62848;SDS011;48941;49.516;8.286;2022-11-11T09:13:25;14.57;;;8.15;;
62848;SDS011;48941;49.516;8.286;2022-11-11T09:15:53;24.00;;;7.53;;
62848;SDS011;48941;49.516;8.286;2022-11-11T09:18:23;23.05;;;7.70;;
62848;SDS011;48941;49.516;8.286;2022-11-11T09:20:50;28.08;;;8.57;;
62848;SDS011;48941;49.516;8.286;2022-11-11T09:23:18;14.77;;;8.52;;
62848;SDS011;48941;49.516;8.286;2022-11-11T09:25:46;31.40;;;8.32;;
62848;SDS011;48941;49.516;8.286;2022-11-11T09:28:14;16.38;;;7.85;;
62848;SDS011;48941;49.516;8.286;2022-11-11T09:30:42;120.28;;;16.13;;
62848;SDS011;48941;49.516;8.286;2022-11-11T09:33:10;21.25;;;8.80;;
62848;SDS011;48941;49.516;8.286;2022-11-11T09:35:39;22.35;;;8.27;;
62848;SDS011;48941;49.516;8.286;2022-11-11T09:38:07;19.40;;;8.93;;
62848;SDS011;48941;49.516;8.286;2022-11-11T09:40:40;15.30;;;8.55;;
62848;SDS011;48941;49.516;8.286;2022-11-11T09:43:17;26.35;;;8.35;;
62848;SDS011;48941;49.516;8.286;2022-11-11T09:45:59;26.88;;;8.05;;
62848;SDS011;48941;49.516;8.286;2022-11-11T09:48:39;16.98;;;9.00;;
62848;SDS011;48941;49.516;8.286;2022-11-11T09:51:22;18.25;;;10.98;;
62848;SDS011;48941;49.516;8.286;2022-11-11T09:53:53;26.52;;;9.75;;
62848;SDS011;48941;49.516;8.286;2022-11-11T09:56:26;13.88;;;9.10;;
62848;SDS011;48941;49.516;8.286;2022-11-11T09:58:58;22.10;;;8.18;;
62848;SDS011;48941;49.516;8.286;2022-11-11T10:01:32;15.55;;;9.05;;
62848;SDS011;48941;49.516;8.286;2022-11-11T10:06:41;15.55;;;8.30;;
62848;SDS011;48941;49.516;8.286;2022-11-11T10:09:13;30.42;;;13.63;;
62848;SDS011;48941;49.516;8.286;2022-11-11T10:11:50;17.25;;;8.60;;
62848;SDS011;48941;49.516;8.286;2022-11-11T10:14:26;18.92;;;8.05;;
62848;SDS011;48941;49.516;8.286;2022-11-11T10:17:01;21.25;;;11.45;;
62848;SDS011;48941;49.516;8.286;2022-11-11T10:19:38;12.98;;;8.55;;
62848;SDS011;48941;49.516;8.286;2022-11-11T10:24:50;15.65;;;9.25;;
62848;SDS011;48941;49.516;8.286;2022-11-11T10:27:21;17.38;;;8.30;;
62848;SDS011;48941;49.516;8.286;2022-11-11T10:29:50;14.82;;;8.90;;
62848;SDS011;48941;49.516;8.286;2022-11-11T10:32:19;12.80;;;7.97;;
62848;SDS011;48941;49.516;8.286;2022-11-11T10:34:50;11.50;;;7.43;;
62848;SDS011;48941;49.516;8.286;2022-11-11T10:37:20;21.10;;;8.05;;
62848;SDS011;48941;49.516;8.286;2022-11-11T10:39:57;31.67;;;7.90;;
62848;SDS011;48941;49.516;8.286;2022-11-11T10:42:31;25.13;;;9.15;;
62848;SDS011;48941;49.516;8.286;2022-11-11T10:44:59;14.93;;;9.02;;
62848;SDS011;48941;49.516;8.286;2022-11-11T10:47:40;12.48;;;8.52;;
62848;SDS011;48941;49.516;8.286;2022-11-11T10:50:13;18.20;;;9.13;;
62848;SDS011;48941;49.516;8.286;2022-11-11T10:52:49;15.85;;;8.73;;
62848;SDS011;48941;49.516;8.286;2022-11-11T10:55:24;17.52;;;9.48;;
62848;SDS011;48941;49.516;8.286;2022-11-11T10:57:58;26.77;;;10.70;;
62848;SDS011;48941;49.516;8.286;2022-11-11T11:00:31;25.20;;;10.63;;
62848;SDS011;48941;49.516;8.286;2022-11-11T11:03:11;15.95;;;9.52;;
62848;SDS011;48941;49.516;8.286;2022-11-11T11:05:44;14.85;;;8.60;;
62848;SDS011;48941;49.516;8.286;2022-11-11T11:08:18;18.90;;;9.63;;
62848;SDS011;48941;49.516;8.286;2022-11-11T11:13:23;17.60;;;8.60;;
62848;SDS011;48941;49.516;8.286;2022-11-11T11:15:57;19.35;;;9.57;;
62848;SDS011;48941;49.516;8.286;2022-11-11T11:20:58;12.85;;;7.68;;
62848;SDS011;48941;49.516;8.286;2022-11-11T11:23:38;14.60;;;7.93;;
62848;SDS011;48941;49.516;8.286;2022-11-11T11:26:08;15.82;;;9.32;;
62848;SDS011;48941;49.516;8.286;2022-11-11T11:28:51;12.32;;;8.30;;
62848;SDS011;48941;49.516;8.286;2022-11-11T11:31:23;12.45;;;8.20;;
62848;SDS011;48941;49.516;8.286;2022-11-11T11:34:02;13.45;;;9.55;;
62848;SDS011;48941;49.516;8.286;2022-11-11T11:36:30;17.15;;;9.35;;
62848;SDS011;48941;49.516;8.286;2022-11-11T11:38:59;59.15;;;9.88;;
62848;SDS011;48941;49.516;8.286;2022-11-11T11:41:37;18.83;;;10.13;;
62848;SDS011;48941;49.516;8.286;2022-11-11T11:46:53;17.15;;;10.10;;
62848;SDS011;48941;49.516;8.286;2022-11-11T11:49:32;18.00;;;10.73;;
62848;SDS011;48941;49.516;8.286;2022-11-11T11:52:14;21.48;;;13.73;;
62848;SDS011;48941;49.516;8.286;2022-11-11T11:54:52;23.95;;;11.52;;
62848;SDS011;48941;49.516;8.286;2022-11-11T11:57:29;26.13;;;12.90;;
62848;SDS011;48941;49.516;8.286;2022-11-11T12:00:11;19.90;;;12.13;;
62848;SDS011;48941;49.516;8.286;2022-11-11T12:05:43;23.95;;;12.15;;
62848;SDS011;48941;49.516;8.286;2022-11-11T12:08:22;21.93;;;10.30;;
62848;SDS011;48941;49.516;8.286;2022-11-11T12:11:06;18.05;;;11.32;;
62848;SDS011;48941;49.516;8.286;2022-11-11T12:13:40;18.77;;;11.25;;
62848;SDS011;48941;49.516;8.286;2022-11-11T12:16:16;24.13;;;12.13;;
62848;SDS011;48941;49.516;8.286;2022-11-11T12:18:58;26.60;;;15.98;;
62848;SDS011;48941;49.516;8.286;2022-11-11T12:21:34;21.35;;;12.65;;
62848;SDS011;48941;49.516;8.286;2022-11-11T12:24:11;17.05;;;10.65;;
62848;SDS011;48941;49.516;8.286;2022-11-11T12:27:00;27.42;;;11.57;;
62848;SDS011;48941;49.516;8.286;2022-11-11T12:29:38;28.73;;;11.75;;
62848;SDS011;48941;49.516;8.286;2022-11-11T12:32:20;25.67;;;10.65;;
62848;SDS011;48941;49.516;8.286;2022-11-11T12:35:19;21.10;;;11.85;;
62848;SDS011;48941;49.516;8.286;2022-11-11T12:37:59;18.10;;;10.77;;
62848;SDS011;48941;49.516;8.286;2022-11-11T12:40:40;19.38;;;11.13;;
62848;SDS011;48941;49.516;8.286;2022-11-11T12:43:18;21.80;;;13.07;;
62848;SDS011;48941;49.516;8.286;2022-11-11T12:45:54;25.30;;;11.25;;
62848;SDS011;48941;49.516;8.286;2022-11-11T12:48:37;21.00;;;12.40;;
62848;SDS011;48941;49.516;8.286;2022-11-11T12:51:19;25.20;;;12.60;;
62848;SDS011;48941;49.516;8.286;2022-11-11T12:54:00;18.38;;;10.55;;
62848;SDS011;48941;49.516;8.286;2022-11-11T12:56:37;18.65;;;11.27;;
62848;SDS011;48941;49.516;8.286;2022-11-11T12:59:18;17.48;;;10.68;;
62848;SDS011;48941;49.516;8.286;2022-11-11T13:01:56;20.58;;;11.70;;
62848;SDS011;48941;49.516;8.286;2022-11-11T13:04:39;20.92;;;11.57;;
62848;SDS011;48941;49.516;8.286;2022-11-11T13:10:15;22.73;;;11.70;;
62848;SDS011;48941;49.516;8.286;2022-11-11T13:12:53;22.92;;;10.77;;
62848;SDS011;48941;49.516;8.286;2022-11-11T13:15:28;30.45;;;11.52;;
62848;SDS011;48941;49.516;8.286;2022-11-11T13:17:57;21.45;;;11.30;;
62848;SDS011;48941;49.516;8.286;2022-11-11T13:20:37;26.60;;;11.82;;
62848;SDS011;48941;49.516;8.286;2022-11-11T13:23:10;20.30;;;12.18;;
62848;SDS011;48941;49.516;8.286;2022-11-11T13:25:39;21.48;;;12.55;;
62848;SDS011;48941;49.516;8.286;2022-11-11T13:28:20;22.90;;;11.55;;
62848;SDS011;48941;49.516;8.286;2022-11-11T13:30:55;17.25;;;11.27;;
62848;SDS011;48941;49.516;8.286;2022-11-11T13:33:41;20.02;;;10.80;;
62848;SDS011;48941;49.516;8.286;2022-11-11T13:36:13;19.63;;;10.65;;
62848;SDS011;48941;49.516;8.286;2022-11-11T13:38:44;20.10;;;11.25;;
62848;SDS011;48941;49.516;8.286;2022-11-11T13:41:19;18.45;;;11.07;;
62848;SDS011;48941;49.516;8.286;2022-11-11T13:43:50;19.08;;;11.25;;
62848;SDS011;48941;49.516;8.286;2022-11-11T13:46:32;19.98;;;11.40;;
62848;SDS011;48941;49.516;8.286;2022-11-11T13:49:02;17.80;;;11.05;;
62848;SDS011;48941;49.516;8.286;2022-11-11T13:51:35;19.83;;;10.68;;
62848;SDS011;48941;49.516;8.286;2022-11-11T13:54:05;20.00;;;10.55;;
62848;SDS011;48941;49.516;8.286;2022-11-11T13:56:47;21.60;;;10.50;;
62848;SDS011;48941;49.516;8.286;2022-11-11T13:59:19;17.70;;;10.55;;
62848;SDS011;48941;49.516;8.286;2022-11-11T14:02:11;16.40;;;10.32;;
62848;SDS011;48941;49.516;8.286;2022-11-11T14:07:52;16.15;;;9.60;;
62848;SDS011;48941;49.516;8.286;2022-11-11T14:13:34;23.75;;;10.50;;
62848;SDS011;48941;49.516;8.286;2022-11-11T14:16:10;19.52;;;11.13;;
62848;SDS011;48941;49.516;8.286;2022-11-11T14:18:43;20.55;;;10.82;;
62848;SDS011;48941;49.516;8.286;2022-11-11T14:24:21;18.73;;;11.13;;
62848;SDS011;48941;49.516;8.286;2022-11-11T14:26:56;19.58;;;11.63;;
62848;SDS011;48941;49.516;8.286;2022-11-11T14:29:27;18.88;;;10.60;;
62848;SDS011;48941;49.516;8.286;2022-11-11T14:32:04;22.17;;;11.07;;
62848;SDS011;48941;49.516;8.286;2022-11-11T14:34:43;28.77;;;10.70;;
62848;SDS011;48941;49.516;8.286;2022-11-11T14:37:29;17.75;;;10.02;;
62848;SDS011;48941;49.516;8.286;2022-11-11T14:40:22;20.15;;;10.80;;
62848;SDS011;48941;49.516;8.286;2022-11-11T14:42:51;19.63;;;11.27;;
62848;SDS011;48941;49.516;8.286;2022-11-11T14:54:32;25.25;;;11.73;;
62848;SDS011;48941;49.516;8.286;2022-11-11T14:57:05;20.80;;;10.50;;
62848;SDS011;48941;49.516;8.286;2022-11-11T14:59:36;23.60;;;11.07;;
62848;SDS011;48941;49.516;8.286;2022-11-11T15:02:08;19.30;;;11.57;;
62848;SDS011;48941;49.516;8.286;2022-11-11T15:04:45;19.63;;;12.10;;
62848;SDS011;48941;49.516;8.286;2022-11-11T15:07:17;21.25;;;11.82;;
62848;SDS011;48941;49.516;8.286;2022-11-11T15:10:01;18.38;;;11.07;;
62848;SDS011;48941;49.516;8.286;2022-11-11T15:12:42;18.75;;;10.02;;
62848;SDS011;48941;49.516;8.286;2022-11-11T15:15:20;19.70;;;11.18;;
62848;SDS011;48941;49.516;8.286;2022-11-11T15:17:54;19.25;;;10.70;;
62848;SDS011;48941;49.516;8.286;2022-11-11T15:20:47;20.95;;;11.80;;
62848;SDS011;48941;49.516;8.286;2022-11-11T15:23:26;20.17;;;11.85;;
62848;SDS011;48941;49.516;8.286;2022-11-11T15:26:01;21.05;;;12.45;;
62848;SDS011;48941;49.516;8.286;2022-11-11T15:28:43;23.35;;;13.07;;
62848;SDS011;48941;49.516;8.286;2022-11-11T15:31:26;22.55;;;12.00;;
62848;SDS011;48941;49.516;8.286;2022-11-11T15:34:05;24.65;;;13.63;;
62848;SDS011;48941;49.516;8.286;2022-11-11T15:36:48;26.63;;;13.63;;
62848;SDS011;48941;49.516;8.286;2022-11-11T15:39:22;24.63;;;13.32;;
62848;SDS011;48941;49.516;8.286;2022-11-11T15:41:53;22.08;;;12.98;;
62848;SDS011;48941;49.516;8.286;2022-11-11T15:44:21;28.50;;;13.18;;
62848;SDS011;48941;49.516;8.286;2022-11-11T15:46:52;24.42;;;11.73;;